Terminal Aerodrome Forecast
Issued by NWS Atlanta, GA

Home | Current Version | Previous Version | Text Only | Print | Product List | Glossary On
Versions: 1 2 3 4 5 6 7 8 9 10 11 12 13 14 15 16 17 18 19 20 21 22 23 24 25 26 27 28 29 30 31 32 33 34 35 36
255
FTUS42 KFFC 162145 AAB
TAFATL
TAF AMD
KATL 162145Z 1622/1724 14007KT P6SM SCT050 BKN080 BKN250
     FM170800 14004KT P6SM SCT030 BKN100
     FM171400 17006KT P6SM BKN070
     FM171700 20008KT P6SM SCT030 BKN060=

USA.gov is the U.S. government's official web portal to all federal, state and local government web resources and services.